Time;durP1;ratioP1;P1;durP2;ratioP2;P2;SDS_P1;SDS_P2;PMS_P1;PMS_P2;Temp;Humidity;BMP_temperature;BMP_pressure;BME280_temperature;BME280_humidity;BME280_pressure;Samples;Min_cycle;Max_cycle;Signal;HPM_P1;HPM_P2
2021/09/21 09:58:40;;;;;;;4.05;2.63;;;13.90;99.90;;;;;;5070681;28;20628;-76
2021/09/21 10:01:05;;;;;;;2.50;2.40;;;13.90;99.90;;;;;;5070716;28;20180;-76
2021/09/21 10:03:31;;;;;;;2.40;2.20;;;14.00;99.90;;;;;;5070646;28;20165;-77
2021/09/21 10:05:57;;;;;;;2.92;2.38;;;14.10;99.90;;;;;;5070537;28;20172;-77
2021/09/21 10:08:23;;;;;;;2.67;2.58;;;14.20;99.90;;;;;;5070601;28;20514;-77
2021/09/21 10:10:49;;;;;;;4.43;2.50;;;14.30;99.90;;;;;;5070543;28;20169;-77
2021/09/21 10:13:17;;;;;;;2.70;2.40;;;14.30;99.90;;;;;;5070456;28;20172;-77
2021/09/21 10:15:43;;;;;;;2.30;2.20;;;14.50;99.90;;;;;;5070407;28;20175;-77
2021/09/21 10:18:20;;;;;;;4.30;2.63;;;14.60;99.90;;;;;;5068966;28;20666;-77
2021/09/21 10:21:03;;;;;;;2.40;2.30;;;14.70;99.90;;;;;;5070496;28;20168;-76
2021/09/21 10:23:37;;;;;;;2.42;2.22;;;14.80;99.90;;;;;;5070266;28;20173;-77
2021/09/21 10:26:13;;;;;;;2.65;2.20;;;14.90;99.90;;;;;;5068903;28;20667;-77
2021/09/21 10:28:39;;;;;;;4.68;2.30;;;15.00;99.90;;;;;;5070193;28;20630;-79
2021/09/21 10:31:12;;;;;;;2.70;2.38;;;15.00;99.90;;;;;;5070143;28;20169;-78
2021/09/21 10:33:38;;;;;;;2.45;2.30;;;15.00;99.90;;;;;;5070096;28;20168;-78
2021/09/21 10:36:15;;;;;;;2.70;2.50;;;15.00;99.90;;;;;;5068744;28;20165;-78
2021/09/21 10:38:55;;;;;;;3.72;2.58;;;14.90;99.90;;;;;;5069984;28;20172;-78
2021/09/21 10:41:20;;;;;;;2.60;2.40;;;14.90;99.90;;;;;;5069796;28;20520;-78
2021/09/21 10:43:57;;;;;;;2.85;2.65;;;15.00;99.90;;;;;;5068558;28;20179;-78
2021/09/21 10:46:23;;;;;;;2.30;2.20;;;15.00;99.90;;;;;;5069774;28;20164;-78
2021/09/21 10:48:49;;;;;;;2.60;2.50;;;15.00;99.90;;;;;;5069744;28;20244;-78
2021/09/21 10:51:15;;;;;;;3.10;2.90;;;15.00;99.90;;;;;;5069657;28;20169;-78
2021/09/21 10:53:40;;;;;;;3.13;2.50;;;15.00;99.90;;;;;;5069573;28;20176;-78
2021/09/21 10:56:14;;;;;;;4.30;2.88;;;15.00;99.90;;;;;;5069524;28;20164;-78
2021/09/21 10:58:54;;;;;;;2.63;2.53;;;15.00;99.90;;;;;;5068189;28;20217;-78
2021/09/21 11:01:20;;;;;;;6.28;2.35;;;15.00;99.90;;;;;;5068177;28;20176;-78
2021/09/21 11:03:47;;;;;;;2.40;2.22;;;15.00;99.90;;;;;;5069428;28;20160;-77
2021/09/21 11:06:14;;;;;;;4.10;2.25;;;15.00;99.90;;;;;;5069254;28;20168;-77
2021/09/21 11:08:41;;;;;;;2.50;2.40;;;15.10;99.90;;;;;;5063547;28;20169;-77
2021/09/21 11:11:08;;;;;;;2.65;2.30;;;15.20;99.90;;;;;;5056017;28;20193;-77
2021/09/21 11:13:37;;;;;;;2.40;2.20;;;15.30;99.90;;;;;;5055975;28;20522;-77
2021/09/21 11:16:06;;;;;;;2.70;2.38;;;15.40;99.90;;;;;;5055993;28;20180;-77
2021/09/21 11:18:32;;;;;;;2.38;2.17;;;15.50;99.90;;;;;;5054546;28;20211;-77
2021/09/21 11:21:08;;;;;;;2.60;2.40;;;15.60;99.90;;;;;;5054570;28;20198;-77
2021/09/21 11:23:37;;;;;;;2.40;2.28;;;15.70;99.90;;;;;;5055816;28;20161;-77
2021/09/21 11:26:11;;;;;;;1.80;1.70;;;15.60;99.90;;;;;;5055815;28;20420;-77
2021/09/21 11:28:42;;;;;;;2.72;1.83;;;15.80;99.90;;;;;;5054479;28;20631;-77
2021/09/21 11:31:07;;;;;;;2.15;2.00;;;15.90;99.90;;;;;;5055694;28;20280;-77
2021/09/21 11:33:36;;;;;;;13.90;6.93;;;15.90;99.90;;;;;;5055511;28;20189;-77
2021/09/21 11:36:06;;;;;;;2.72;2.53;;;16.00;99.90;;;;;;5055627;28;20173;-77
2021/09/21 11:38:35;;;;;;;2.03;1.92;;;16.00;99.90;;;;;;5054303;28;20212;-77
2021/09/21 11:41:01;;;;;;;2.92;2.72;;;16.10;99.90;;;;;;5055555;28;20165;-77
2021/09/21 11:43:27;;;;;;;3.58;2.70;;;16.10;99.90;;;;;;5055474;28;20169;-77
2021/09/21 11:45:53;;;;;;;2.35;2.25;;;16.10;99.90;;;;;;5055342;28;20207;-77
2021/09/21 11:48:20;;;;;;;1.85;1.75;;;16.10;99.90;;;;;;5055351;28;20165;-77
2021/09/21 11:50:46;;;;;;;2.22;2.13;;;16.20;99.90;;;;;;5054058;28;20179;-77
2021/09/21 11:53:14;;;;;;;2.20;2.10;;;15.40;99.90;;;;;;5054225;28;20188;-77
2021/09/21 11:55:43;;;;;;;5.18;2.05;;;17.00;99.90;;;;;;5055256;28;20627;-77
2021/09/21 11:58:10;;;;;;;3.95;2.72;;;16.30;99.90;;;;;;5054900;28;20229;-77
2021/09/21 12:00:37;;;;;;;3.42;3.17;;;16.50;99.90;;;;;;5055104;28;20165;-77
2021/09/21 12:03:05;;;;;;;2.03;1.92;;;16.50;99.90;;;;;;5055095;28;20169;-77
2021/09/21 12:05:33;;;;;;;2.17;2.00;;;16.60;99.90;;;;;;5055055;28;20519;-77
2021/09/21 12:08:03;;;;;;;2.38;2.28;;;16.60;99.90;;;;;;5054923;28;20173;-77
2021/09/21 12:10:29;;;;;;;1.92;1.83;;;16.80;99.90;;;;;;5054990;28;20231;-77
2021/09/21 12:13:07;;;;;;;2.00;1.90;;;16.80;99.90;;;;;;5053690;28;20173;-77
2021/09/21 12:15:33;;;;;;;2.30;2.20;;;16.90;99.90;;;;;;5053665;28;20266;-77
2021/09/21 12:18:02;;;;;;;4.07;3.88;;;16.90;99.90;;;;;;5054749;28;20197;-77
2021/09/21 12:20:32;;;;;;;3.80;3.50;;;16.90;99.90;;;;;;5053731;28;20590;-77
2021/09/21 12:22:59;;;;;;;2.72;2.53;;;17.10;99.90;;;;;;5053564;28;20175;-77
2021/09/21 12:25:29;;;;;;;2.15;1.95;;;17.20;99.90;;;;;;5053408;28;20187;-77
2021/09/21 12:27:55;;;;;;;2.20;1.88;;;17.20;99.90;;;;;;5054565;28;20165;-77
2021/09/21 12:30:23;;;;;;;1.90;1.80;;;17.40;99.90;;;;;;5054726;28;20650;-77
2021/09/21 12:33:04;;;;;;;1.75;1.65;;;17.40;99.90;;;;;;5054504;28;20188;-77
2021/09/21 12:35:39;;;;;;;1.90;1.80;;;17.50;99.90;;;;;;5054519;28;20319;-77
2021/09/21 12:38:18;;;;;;;2.05;1.50;;;17.40;99.90;;;;;;5054188;28;20184;-77
2021/09/21 12:41:04;;;;;;;1.50;1.50;;;17.40;99.90;;;;;;5054382;28;20214;-77
2021/09/21 12:43:33;;;;;;;1.50;1.40;;;17.40;99.90;;;;;;5054142;28;20181;-77
2021/09/21 12:46:04;;;;;;;1.90;1.80;;;17.40;99.90;;;;;;5054202;28;20299;-77
2021/09/21 12:48:50;;;;;;;1.63;1.63;;;17.40;99.90;;;;;;5054115;28;20184;-77
2021/09/21 12:51:16;;;;;;;2.42;2.28;;;17.50;99.90;;;;;;5054156;28;20173;-77
2021/09/21 12:53:41;;;;;;;2.80;2.00;;;17.60;99.90;;;;;;5054076;28;20180;-77
2021/09/21 12:56:11;;;;;;;2.20;1.80;;;17.70;99.90;;;;;;5054087;28;20181;-77
2021/09/21 12:58:40;;;;;;;2.10;2.00;;;17.80;99.90;;;;;;5053670;28;20220;-77
2021/09/21 13:01:16;;;;;;;2.25;2.00;;;18.00;99.90;;;;;;5053833;28;20688;-77
2021/09/21 13:03:42;;;;;;;1.85;1.73;;;18.20;99.90;;;;;;5052725;28;20173;-77
2021/09/21 13:06:09;;;;;;;1.80;1.80;;;18.20;99.90;;;;;;5052585;28;20165;-77
2021/09/21 13:08:38;;;;;;;2.17;1.75;;;18.40;99.90;;;;;;5053830;28;20218;-77
2021/09/21 13:11:04;;;;;;;1.65;1.55;;;18.40;99.90;;;;;;5053786;28;20188;-77
2021/09/21 13:13:30;;;;;;;2.88;1.80;;;18.70;99.90;;;;;;5053732;28;20652;-77
2021/09/21 13:15:56;;;;;;;2.45;2.25;;;18.80;99.90;;;;;;5053691;28;20267;-77
2021/09/21 13:18:21;;;;;;;1.83;1.73;;;18.90;99.90;;;;;;5053644;28;20196;-77
2021/09/21 13:20:48;;;;;;;2.00;1.90;;;18.90;99.90;;;;;;5053621;28;20256;-77
2021/09/21 13:23:13;;;;;;;3.90;2.03;;;18.90;99.90;;;;;;5053741;28;20541;-77
2021/09/21 13:25:39;;;;;;;1.98;1.88;;;18.90;99.90;;;;;;5053584;28;20248;-77
2021/09/21 13:28:06;;;;;;;1.77;1.67;;;18.80;99.90;;;;;;5053409;28;20169;-77
2021/09/21 13:30:33;;;;;;;2.47;2.00;;;18.80;99.90;;;;;;5053525;28;20173;-77
2021/09/21 13:32:59;;;;;;;2.28;2.08;;;18.90;99.90;;;;;;5053185;28;20164;-77
2021/09/21 13:35:26;;;;;;;1.83;1.73;;;18.70;99.90;;;;;;5053521;28;20172;-77
2021/09/21 13:37:52;;;;;;;2.20;2.08;;;18.70;99.90;;;;;;5053403;28;20188;-77
2021/09/21 13:40:19;;;;;;;1.95;1.85;;;18.70;99.90;;;;;;5052146;28;20322;-77
2021/09/21 13:42:51;;;;;;;1.60;1.50;;;18.70;99.90;;;;;;5053526;28;20165;-77
2021/09/21 13:45:17;;;;;;;2.78;1.90;;;18.70;99.90;;;;;;5053438;28;20275;-77
2021/09/21 13:47:46;;;;;;;1.88;1.80;;;18.70;99.90;;;;;;5053401;28;20228;-77
2021/09/21 13:50:15;;;;;;;1.70;1.60;;;18.60;99.90;;;;;;5053401;28;20307;-77
2021/09/21 13:52:42;;;;;;;1.70;1.60;;;18.50;99.90;;;;;;5052110;28;20197;-77
2021/09/21 13:55:09;;;;;;;2.25;1.40;;;18.50;99.90;;;;;;5053299;28;20184;-77
2021/09/21 13:57:34;;;;;;;3.35;2.00;;;18.50;99.90;;;;;;5052937;28;20228;-77
2021/09/21 14:00:01;;;;;;;1.90;1.80;;;18.40;99.90;;;;;;5053335;28;20168;-77
2021/09/21 14:02:27;;;;;;;2.28;1.90;;;18.30;99.90;;;;;;5051966;28;20180;-77
2021/09/21 14:04:52;;;;;;;1.90;1.80;;;18.30;99.90;;;;;;5053339;28;20176;-77
2021/09/21 14:07:18;;;;;;;1.95;1.80;;;18.30;99.90;;;;;;5051895;28;20169;-77
2021/09/21 14:09:45;;;;;;;7.72;1.83;;;18.20;99.90;;;;;;5053068;28;20172;-77
2021/09/21 14:12:10;;;;;;;1.95;1.85;;;18.20;99.90;;;;;;5053065;28;20210;-77
2021/09/21 14:14:37;;;;;;;1.70;1.60;;;18.30;99.90;;;;;;5053090;28;20172;-77
2021/09/21 14:17:03;;;;;;;2.08;1.98;;;18.40;99.90;;;;;;5052912;28;20187;-77
2021/09/21 14:19:29;;;;;;;2.20;2.10;;;18.40;99.90;;;;;;5053053;28;20165;-77
2021/09/21 14:21:56;;;;;;;2.00;1.90;;;18.40;99.90;;;;;;5053008;28;20165;-77
2021/09/21 14:24:27;;;;;;;1.92;1.83;;;18.50;99.90;;;;;;5051619;28;20256;-77
2021/09/21 14:26:53;;;;;;;1.60;1.50;;;18.50;99.90;;;;;;5053030;28;20169;-77
2021/09/21 14:29:19;;;;;;;1.92;1.83;;;18.50;99.90;;;;;;5052955;28;20179;-77
2021/09/21 14:31:44;;;;;;;4.10;1.95;;;18.60;99.90;;;;;;5052854;28;20180;-77
2021/09/21 14:34:10;;;;;;;2.03;1.92;;;18.70;99.90;;;;;;5052825;28;20172;-77
2021/09/21 14:36:36;;;;;;;1.83;1.75;;;18.70;99.90;;;;;;5052772;28;20196;-77
2021/09/21 14:39:04;;;;;;;1.73;1.65;;;18.60;99.90;;;;;;5052869;28;20156;-77
2021/09/21 14:41:29;;;;;;;2.22;1.85;;;18.50;99.90;;;;;;5052798;28;20173;-77
2021/09/21 14:43:55;;;;;;;2.17;1.80;;;18.30;99.90;;;;;;5054039;28;20214;-77
2021/09/21 14:46:24;;;;;;;1.95;1.85;;;18.20;99.90;;;;;;5056559;28;20161;-77
2021/09/21 14:48:50;;;;;;;2.65;2.13;;;18.00;99.90;;;;;;5056599;28;20248;-77
2021/09/21 14:51:16;;;;;;;2.28;2.17;;;17.90;99.90;;;;;;5056390;28;20164;-77
2021/09/21 14:53:43;;;;;;;2.25;2.05;;;17.80;99.90;;;;;;5056637;28;20168;-77
2021/09/21 14:56:09;;;;;;;2.05;1.95;;;17.70;99.90;;;;;;5055189;28;20169;-77
2021/09/21 14:58:35;;;;;;;2.00;1.90;;;17.70;99.90;;;;;;5056028;28;20295;-77
2021/09/21 15:01:01;;;;;;;2.08;1.98;;;17.90;99.90;;;;;;5055004;28;20256;-77
2021/09/21 15:03:26;;;;;;;2.97;2.20;;;18.10;99.90;;;;;;5055050;28;20177;-77
2021/09/21 15:05:52;;;;;;;3.28;2.10;;;18.20;99.90;;;;;;5056352;28;20168;-77
2021/09/21 15:08:18;;;;;;;2.28;2.17;;;18.30;99.90;;;;;;5056016;28;20190;-77
2021/09/21 15:10:44;;;;;;;3.03;2.03;;;18.40;99.90;;;;;;5056148;28;20176;-77
2021/09/21 15:13:09;;;;;;;2.85;2.10;;;18.40;99.90;;;;;;5056225;28;20169;-77
2021/09/21 15:15:35;;;;;;;1.90;1.80;;;18.40;99.90;;;;;;5056191;28;20690;-77
2021/09/21 15:18:01;;;;;;;2.53;2.13;;;18.40;99.90;;;;;;5054748;28;20666;-77
2021/09/21 15:20:27;;;;;;;2.10;2.00;;;18.20;99.90;;;;;;5055874;28;20242;-77
2021/09/21 15:22:53;;;;;;;2.92;2.22;;;18.30;99.90;;;;;;5055784;28;20618;-77
2021/09/21 15:25:19;;;;;;;2.83;2.25;;;18.40;99.90;;;;;;5055910;28;20172;-77
2021/09/21 15:27:45;;;;;;;2.78;2.05;;;18.20;99.90;;;;;;5055537;28;20637;-77
2021/09/21 15:30:15;;;;;;;2.35;2.22;;;18.30;99.90;;;;;;5055715;28;20169;-77
2021/09/21 15:32:41;;;;;;;3.17;2.30;;;18.40;99.90;;;;;;5055681;28;20215;-77
2021/09/21 15:35:09;;;;;;;2.78;2.58;;;18.30;99.90;;;;;;5055588;28;20176;-77
2021/09/21 15:37:35;;;;;;;5.50;2.45;;;18.20;99.90;;;;;;5055543;28;20189;-77
2021/09/21 15:40:00;;;;;;;2.83;2.30;;;18.00;99.90;;;;;;5054355;28;20183;-77
2021/09/21 15:42:27;;;;;;;2.63;2.25;;;18.00;99.90;;;;;;5055514;28;20168;-77
2021/09/21 15:44:53;;;;;;;2.42;2.22;;;18.00;99.90;;;;;;5055488;28;20161;-77
2021/09/21 15:47:24;;;;;;;2.85;2.65;;;17.90;99.90;;;;;;5055406;28;20535;-77
2021/09/21 15:49:50;;;;;;;18.10;8.95;;;17.80;99.90;;;;;;5055589;28;20165;-77
2021/09/21 15:52:16;;;;;;;29.45;11.68;;;17.70;99.90;;;;;;5055070;28;20200;-77
2021/09/21 15:54:42;;;;;;;5.20;4.10;;;17.40;99.90;;;;;;5055350;28;20685;-77
2021/09/21 15:57:11;;;;;;;2.45;2.28;;;17.40;99.90;;;;;;5054868;28;20553;-77
2021/09/21 15:59:39;;;;;;;2.70;2.08;;;17.30;99.90;;;;;;5055225;28;20191;-77
2021/09/21 16:02:06;;;;;;;3.88;3.47;;;17.30;99.90;;;;;;5055193;28;20165;-77
2021/09/21 16:04:33;;;;;;;6.28;3.55;;;17.20;99.90;;;;;;5055086;28;20176;-77
2021/09/21 16:06:58;;;;;;;2.65;2.45;;;17.10;99.90;;;;;;5054974;28;20255;-77
2021/09/21 16:09:24;;;;;;;4.95;2.53;;;17.00;99.90;;;;;;5055029;28;20336;-77
2021/09/21 16:11:51;;;;;;;2.55;2.35;;;16.80;99.90;;;;;;5054990;28;20265;-76
2021/09/21 16:14:17;;;;;;;2.70;2.33;;;16.70;99.90;;;;;;5054891;28;20176;-77
2021/09/21 16:16:46;;;;;;;2.50;2.30;;;16.60;99.90;;;;;;5054632;28;20264;-77
2021/09/21 16:19:12;;;;;;;2.85;2.10;;;16.50;99.90;;;;;;5054874;28;20169;-76
2021/09/21 16:21:37;;;;;;;2.67;2.47;;;16.40;99.90;;;;;;5054720;28;20161;-77
2021/09/21 16:24:04;;;;;;;13.27;3.30;;;16.30;99.90;;;;;;5054676;28;20522;-77
2021/09/21 16:26:30;;;;;;;3.50;2.22;;;16.20;99.90;;;;;;5054579;28;20173;-76
2021/09/21 16:28:56;;;;;;;1.85;1.75;;;16.10;99.90;;;;;;5054652;28;20649;-77
2021/09/21 16:31:23;;;;;;;2.50;2.30;;;16.10;99.90;;;;;;5054486;28;20516;-77
2021/09/21 16:33:51;;;;;;;3.10;2.20;;;16.00;99.90;;;;;;5054441;28;20248;-77
2021/09/21 16:36:20;;;;;;;2.45;2.05;;;15.90;99.90;;;;;;5054468;28;20630;-76
2021/09/21 16:38:47;;;;;;;4.88;2.22;;;15.70;99.90;;;;;;5054305;28;20279;-76
2021/09/21 16:41:12;;;;;;;2.60;2.40;;;15.70;99.90;;;;;;5054356;28;20169;-76
2021/09/21 16:43:41;;;;;;;2.40;2.25;;;15.60;99.90;;;;;;5053074;28;20255;-76
2021/09/21 16:46:10;;;;;;;2.90;2.13;;;15.40;99.90;;;;;;5054218;28;20265;-76
2021/09/21 16:48:36;;;;;;;2.60;2.40;;;15.40;99.90;;;;;;5054253;28;20248;-76
2021/09/21 16:51:03;;;;;;;2.30;2.10;;;15.30;99.90;;;;;;5052900;28;20183;-76
2021/09/21 16:53:28;;;;;;;7.18;2.60;;;15.20;99.90;;;;;;5052888;28;20177;-76
2021/09/21 16:55:54;;;;;;;2.75;2.55;;;15.20;99.90;;;;;;5054119;28;20506;-76
2021/09/21 16:58:20;;;;;;;3.40;1.98;;;15.00;99.90;;;;;;5053667;28;20228;-76
2021/09/21 17:00:47;;;;;;;3.05;2.78;;;15.00;99.90;;;;;;5054029;28;20256;-76
2021/09/21 17:03:24;;;;;;;3.90;2.22;;;14.90;99.90;;;;;;5053937;28;20169;-76
2021/09/21 17:05:55;;;;;;;2.78;2.42;;;14.80;99.90;;;;;;5052487;28;20218;-76
2021/09/21 17:08:21;;;;;;;2.80;2.70;;;14.80;99.90;;;;;;5053668;28;20175;-76
2021/09/21 17:10:47;;;;;;;3.58;1.92;;;14.70;99.90;;;;;;5053817;28;20748;-76
2021/09/21 17:13:13;;;;;;;3.20;3.00;;;14.70;99.90;;;;;;5053771;28;20169;-76
2021/09/21 17:15:39;;;;;;;2.95;2.75;;;14.60;99.90;;;;;;5053586;28;20239;-76
